Time,TemperatureF,DewpointF,PressureIn,WindDirection,WindDirectionDegrees,WindSpeedMPH,WindSpeedGustMPH,Humidity,HourlyPrecipIn,Conditions,Clouds,dailyrainin,SoftwareType,DateUTC
2013-02-28 00:00:00,32.2,26.8,29.71,WNW,300,12.0,28.0,80,0.00,,,0.00,meteohub,2013-02-28 05:00:00,
2013-02-28 00:05:00,32.2,26.1,29.71,NW,306,19.0,30.0,78,0.00,,,0.00,meteohub,2013-02-28 05:05:00,
2013-02-28 00:10:00,32.0,26.2,29.70,WNW,303,12.0,30.0,79,0.00,,,0.00,meteohub,2013-02-28 05:10:00,
2013-02-28 00:15:00,31.8,26.1,29.71,NW,319,1.0,30.0,79,0.00,,,0.00,meteohub,2013-02-28 05:15:00,
2013-02-28 00:20:00,31.6,25.5,29.70,NW,316,3.0,22.0,78,0.00,,,0.00,meteohub,2013-02-28 05:20:00,
2013-02-28 00:25:00,31.6,25.5,29.71,NW,315,9.0,20.0,78,0.00,,,0.00,meteohub,2013-02-28 05:25:00,
2013-02-28 00:30:00,31.5,26.1,29.71,NW,311,18.0,20.0,80,0.00,,,0.00,meteohub,2013-02-28 05:30:00,
2013-02-28 00:35:00,31.5,25.3,29.71,NW,310,0.0,23.0,78,0.00,,,0.00,meteohub,2013-02-28 05:35:00,
2013-02-28 00:40:00,31.3,25.0,29.70,NW,306,6.0,31.0,77,0.00,,,0.00,meteohub,2013-02-28 05:40:00,
2013-02-28 00:45:00,31.3,25.2,29.70,NW,308,7.0,31.0,78,0.00,,,0.00,meteohub,2013-02-28 05:45:00,
2013-02-28 00:50:00,30.9,24.8,29.70,NW,306,7.0,31.0,78,0.00,,,0.00,meteohub,2013-02-28 05:50:00,
2013-02-28 00:55:00,30.9,24.8,29.70,NW,308,15.0,30.0,78,0.00,,,0.00,meteohub,2013-02-28 05:55:00,
2013-02-28 01:00:00,30.7,25.3,29.70,NW,307,9.0,30.0,80,0.00,,,0.00,meteohub,2013-02-28 06:00:00,
2013-02-28 01:05:00,30.7,25.0,29.70,NW,307,4.0,21.0,79,0.00,,,0.00,meteohub,2013-02-28 06:05:00,
2013-02-28 01:10:00,30.6,25.2,29.70,NW,307,2.0,20.0,80,0.00,,,0.00,meteohub,2013-02-28 06:10:00,
2013-02-28 01:15:00,30.6,25.2,29.70,NW,307,5.0,20.0,80,0.00,,,0.00,meteohub,2013-02-28 06:15:00,
2013-02-28 01:20:00,30.4,25.0,29.70,NW,306,12.0,23.0,80,0.00,,,0.00,meteohub,2013-02-28 06:20:00,
2013-02-28 01:25:00,30.0,25.2,29.69,NW,306,9.0,29.0,82,0.00,,,0.00,meteohub,2013-02-28 06:25:00,
2013-02-28 01:30:00,29.8,24.1,29.68,NW,306,4.0,29.0,79,0.00,,,0.00,meteohub,2013-02-28 06:30:00,
2013-02-28 01:35:00,29.8,23.9,29.69,NW,306,13.0,21.0,78,0.00,,,0.00,meteohub,2013-02-28 06:35:00,
2013-02-28 01:40:00,29.7,23.7,29.68,NW,306,9.0,25.0,78,0.00,,,0.00,meteohub,2013-02-28 06:40:00,
2013-02-28 01:45:00,29.5,23.5,29.69,NW,306,12.0,37.0,78,0.00,,,0.00,meteohub,2013-02-28 06:45:00,
2013-02-28 01:50:00,29.5,23.2,29.68,NW,306,15.0,37.0,77,0.00,,,0.00,meteohub,2013-02-28 06:50:00,
2013-02-28 01:55:00,29.3,23.0,29.68,NW,306,4.0,37.0,77,0.00,,,0.00,meteohub,2013-02-28 06:55:00,
2013-02-28 02:00:00,29.1,22.8,29.68,NW,306,4.0,25.0,77,0.00,,,0.00,meteohub,2013-02-28 07:00:00,
2013-02-28 02:06:00,29.1,22.8,29.68,NW,306,8.0,16.0,77,0.00,,,0.00,meteohub,2013-02-28 07:06:00,
2013-02-28 02:11:00,29.1,22.8,29.68,NW,306,5.0,22.0,77,0.00,,,0.00,meteohub,2013-02-28 07:11:00,
2013-02-28 02:16:00,29.1,23.2,29.68,NW,306,0.0,22.0,78,0.00,,,0.00,meteohub,2013-02-28 07:16:00,
2013-02-28 02:21:00,28.9,23.2,29.68,NW,306,10.0,22.0,79,0.00,,,0.00,meteohub,2013-02-28 07:21:00,
2013-02-28 02:26:00,28.9,23.2,29.67,NW,306,19.0,25.0,79,0.00,,,0.00,meteohub,2013-02-28 07:26:00,
2013-02-28 02:31:00,28.9,22.6,29.67,NW,306,24.0,25.0,77,0.00,,,0.00,meteohub,2013-02-28 07:31:00,
2013-02-28 02:36:00,28.9,22.6,29.67,NW,306,8.0,29.0,77,0.00,,,0.00,meteohub,2013-02-28 07:36:00,
2013-02-28 02:41:00,28.9,23.0,29.67,NW,306,6.0,29.0,78,0.00,,,0.00,meteohub,2013-02-28 07:41:00,
2013-02-28 02:46:00,28.8,22.8,29.67,NW,306,3.0,24.0,78,0.00,,,0.00,meteohub,2013-02-28 07:46:00,
2013-02-28 02:51:00,28.6,22.8,29.68,NW,306,5.0,19.0,79,0.00,,,0.00,meteohub,2013-02-28 07:51:00,
2013-02-28 02:56:00,28.2,22.8,29.68,NW,306,1.0,26.0,80,0.00,,,0.00,meteohub,2013-02-28 07:56:00,
2013-02-28 03:01:00,28.2,23.2,29.67,NW,306,5.0,26.0,81,0.00,,,0.00,meteohub,2013-02-28 08:01:00,
2013-02-28 03:06:00,28.0,23.0,29.68,NW,306,3.0,15.0,81,0.00,,,0.00,meteohub,2013-02-28 08:06:00,
2013-02-28 03:11:00,28.0,23.2,29.68,NW,306,1.0,15.0,82,0.00,,,0.00,meteohub,2013-02-28 08:11:00,
2013-02-28 03:16:00,28.0,23.2,29.67,NW,306,0.0,15.0,82,0.00,,,0.00,meteohub,2013-02-28 08:16:00,
2013-02-28 03:21:00,28.0,23.2,29.67,NW,306,3.0,13.0,82,0.00,,,0.00,meteohub,2013-02-28 08:21:00,
2013-02-28 03:26:00,27.9,23.0,29.67,NW,306,3.0,9.0,82,0.00,,,0.00,meteohub,2013-02-28 08:26:00,
2013-02-28 03:31:00,27.9,23.0,29.67,NW,306,0.0,10.0,82,0.00,,,0.00,meteohub,2013-02-28 08:31:00,
2013-02-28 03:36:00,27.9,23.4,29.67,NW,306,0.0,10.0,83,0.00,,,0.00,meteohub,2013-02-28 08:36:00,
2013-02-28 03:41:00,27.9,23.4,29.67,NW,306,4.0,10.0,83,0.00,,,0.00,meteohub,2013-02-28 08:41:00,
2013-02-28 03:46:00,27.9,23.0,29.66,NW,306,2.0,7.0,82,0.00,,,0.00,meteohub,2013-02-28 08:46:00,
2013-02-28 03:51:00,27.9,23.0,29.66,NW,306,1.0,8.0,82,0.00,,,0.00,meteohub,2013-02-28 08:51:00,
2013-02-28 03:56:00,27.7,22.8,29.65,NW,306,2.0,11.0,82,0.00,,,0.00,meteohub,2013-02-28 08:56:00,
2013-02-28 04:01:00,27.7,22.8,29.66,NW,306,0.0,22.0,82,0.00,,,0.00,meteohub,2013-02-28 09:01:00,
2013-02-28 04:06:00,27.7,23.2,29.66,NW,306,6.0,22.0,83,0.00,,,0.00,meteohub,2013-02-28 09:06:00,
2013-02-28 04:11:00,27.5,23.0,29.66,NW,306,8.0,19.0,83,0.00,,,0.00,meteohub,2013-02-28 09:11:00,
2013-02-28 04:16:00,27.3,22.6,29.66,NW,306,0.0,23.0,82,0.00,,,0.00,meteohub,2013-02-28 09:16:00,
2013-02-28 04:21:00,27.3,22.8,29.66,NW,306,0.0,23.0,83,0.00,,,0.00,meteohub,2013-02-28 09:21:00,
2013-02-28 04:26:00,27.3,22.8,29.67,NW,306,0.0,23.0,83,0.00,,,0.00,meteohub,2013-02-28 09:26:00,
2013-02-28 04:31:00,27.3,22.8,29.67,NW,306,1.0,16.0,83,0.00,,,0.00,meteohub,2013-02-28 09:31:00,
2013-02-28 04:36:00,27.1,22.6,29.67,NW,306,0.0,14.0,83,0.00,,,0.00,meteohub,2013-02-28 09:36:00,
2013-02-28 04:41:00,27.1,23.0,29.68,NW,306,2.0,14.0,84,0.00,,,0.00,meteohub,2013-02-28 09:41:00,
2013-02-28 04:46:00,27.1,23.0,29.67,NW,306,10.0,11.0,84,0.00,,,0.00,meteohub,2013-02-28 09:46:00,
2013-02-28 04:51:00,26.8,22.8,29.67,NW,306,10.0,16.0,85,0.00,,,0.00,meteohub,2013-02-28 09:51:00,
2013-02-28 04:56:00,26.4,22.8,29.68,NW,306,6.0,24.0,86,0.00,,,0.00,meteohub,2013-02-28 09:56:00,
2013-02-28 05:01:00,26.2,22.1,29.67,NW,306,7.0,24.0,84,0.00,,,0.00,meteohub,2013-02-28 10:01:00,
2013-02-28 05:06:00,26.1,21.6,29.67,NW,306,19.0,26.0,83,0.00,,,0.00,meteohub,2013-02-28 10:06:00,
2013-02-28 05:11:00,25.9,20.5,29.67,NW,306,14.0,29.0,80,0.00,,,0.00,meteohub,2013-02-28 10:11:00,
2013-02-28 05:16:00,25.7,20.1,29.66,NW,306,19.0,29.0,79,0.00,,,0.00,meteohub,2013-02-28 10:16:00,
2013-02-28 05:21:00,25.5,19.6,29.67,NW,306,24.0,33.0,78,0.00,,,0.00,meteohub,2013-02-28 10:21:00,
2013-02-28 05:26:00,25.5,19.6,29.67,NW,306,16.0,33.0,78,0.00,,,0.00,meteohub,2013-02-28 10:26:00,
2013-02-28 05:32:00,25.3,19.4,29.67,NW,306,24.0,33.0,78,0.00,,,0.00,meteohub,2013-02-28 10:32:00,
2013-02-28 05:37:00,25.3,19.4,29.67,NW,306,23.0,32.0,78,0.00,,,0.00,meteohub,2013-02-28 10:37:00,
2013-02-28 05:42:00,25.3,19.4,29.67,NW,306,16.0,32.0,78,0.00,,,0.00,meteohub,2013-02-28 10:42:00,
2013-02-28 05:47:00,25.2,19.2,29.66,NW,306,12.0,32.0,78,0.00,,,0.00,meteohub,2013-02-28 10:47:00,
2013-02-28 05:52:00,25.2,19.2,29.66,NW,306,14.0,33.0,78,0.00,,,0.00,meteohub,2013-02-28 10:52:00,
2013-02-28 05:57:00,25.2,19.6,29.67,NW,306,20.0,33.0,79,0.00,,,0.00,meteohub,2013-02-28 10:57:00,
2013-02-28 06:02:00,25.2,19.6,29.67,NW,306,12.0,33.0,79,0.00,,,0.00,meteohub,2013-02-28 11:02:00,
2013-02-28 06:07:00,25.2,19.6,29.67,NW,306,21.0,28.0,79,0.00,,,0.00,meteohub,2013-02-28 11:07:00,
2013-02-28 06:12:00,25.2,19.6,29.67,NW,306,8.0,28.0,79,0.00,,,0.00,meteohub,2013-02-28 11:12:00,
2013-02-28 06:17:00,25.2,19.9,29.67,NW,306,13.0,28.0,80,0.00,,,0.00,meteohub,2013-02-28 11:17:00,
2013-02-28 06:22:00,25.2,19.9,29.67,NW,306,8.0,24.0,80,0.00,,,0.00,meteohub,2013-02-28 11:22:00,
2013-02-28 06:27:00,25.0,19.8,29.67,NW,306,12.0,24.0,80,0.00,,,0.00,meteohub,2013-02-28 11:27:00,
2013-02-28 06:32:00,25.2,20.1,29.67,NW,306,14.0,34.0,81,0.00,,,0.00,meteohub,2013-02-28 11:32:00,
2013-02-28 06:37:00,25.0,19.9,29.68,NW,306,12.0,34.0,81,0.00,,,0.00,meteohub,2013-02-28 11:37:00,
2013-02-28 06:42:00,25.0,19.9,29.67,NW,306,14.0,26.0,81,0.00,,,0.00,meteohub,2013-02-28 11:42:00,
2013-02-28 06:47:00,25.0,20.3,29.68,NW,306,14.0,24.0,82,0.00,,,0.00,meteohub,2013-02-28 11:47:00,
2013-02-28 06:52:00,25.0,20.3,29.68,NW,306,6.0,24.0,82,0.00,,,0.00,meteohub,2013-02-28 11:52:00,
2013-02-28 06:57:00,25.0,20.3,29.68,NW,306,7.0,24.0,82,0.00,,,0.00,meteohub,2013-02-28 11:57:00,
2013-02-28 07:02:00,25.0,20.5,29.68,NW,306,12.0,30.0,83,0.00,,,0.00,meteohub,2013-02-28 12:02:00,
2013-02-28 07:07:00,25.0,20.5,29.68,NW,306,5.0,30.0,83,0.00,,,0.00,meteohub,2013-02-28 12:07:00,
2013-02-28 07:12:00,25.0,20.5,29.68,NW,306,5.0,20.0,83,0.00,,,0.00,meteohub,2013-02-28 12:12:00,
2013-02-28 07:17:00,25.0,20.5,29.68,NW,306,10.0,31.0,83,0.00,,,0.00,meteohub,2013-02-28 12:17:00,
2013-02-28 07:22:00,25.0,20.5,29.68,NW,306,1.0,31.0,83,0.00,,,0.00,meteohub,2013-02-28 12:22:00,
2013-02-28 07:27:00,25.2,20.7,29.68,NW,306,14.0,25.0,83,0.00,,,0.00,meteohub,2013-02-28 12:27:00,
2013-02-28 07:32:00,25.2,20.7,29.68,NW,306,11.0,25.0,83,0.00,,,0.00,meteohub,2013-02-28 12:32:00,
2013-02-28 07:37:00,25.2,20.7,29.68,NW,306,0.0,22.0,83,0.00,,,0.00,meteohub,2013-02-28 12:37:00,
2013-02-28 07:42:00,25.2,21.0,29.68,NW,306,3.0,22.0,84,0.00,,,0.00,meteohub,2013-02-28 12:42:00,
2013-02-28 07:47:00,25.2,21.0,29.69,NW,306,8.0,18.0,84,0.00,,,0.00,meteohub,2013-02-28 12:47:00,
2013-02-28 07:52:00,25.3,21.2,29.69,NW,306,8.0,23.0,84,0.00,,,0.00,meteohub,2013-02-28 12:52:00,
2013-02-28 07:57:00,25.3,21.2,29.69,NW,306,0.0,23.0,84,0.00,,,0.00,meteohub,2013-02-28 12:57:00,
2013-02-28 08:02:00,25.3,21.2,29.69,NW,306,2.0,23.0,84,0.00,,,0.00,meteohub,2013-02-28 13:02:00,
2013-02-28 08:07:00,25.3,21.2,29.69,NW,306,4.0,20.0,84,0.00,,,0.00,meteohub,2013-02-28 13:07:00,
2013-02-28 08:12:00,25.3,21.2,29.70,NW,306,1.0,9.0,84,0.00,,,0.00,meteohub,2013-02-28 13:12:00,
2013-02-28 08:17:00,25.3,21.4,29.70,NW,306,0.0,13.0,85,0.00,,,0.00,meteohub,2013-02-28 13:17:00,
2013-02-28 08:22:00,25.3,21.2,29.70,NW,306,3.0,13.0,84,0.00,,,0.00,meteohub,2013-02-28 13:22:00,
2013-02-28 08:27:00,25.3,21.2,29.70,NW,306,0.0,14.0,84,0.00,,,0.00,meteohub,2013-02-28 13:27:00,
2013-02-28 08:32:00,25.3,21.4,29.71,NW,306,13.0,26.0,85,0.00,,,0.00,meteohub,2013-02-28 13:32:00,
2013-02-28 08:38:00,25.3,21.4,29.71,NW,306,5.0,26.0,85,0.00,,,0.00,meteohub,2013-02-28 13:38:00,
2013-02-28 08:43:00,25.3,21.4,29.71,NW,306,4.0,15.0,85,0.00,,,0.00,meteohub,2013-02-28 13:43:00,
2013-02-28 08:48:00,25.3,21.4,29.71,NW,306,4.0,15.0,85,0.00,,,0.00,meteohub,2013-02-28 13:48:00,
2013-02-28 08:53:00,25.3,21.4,29.71,NW,306,0.0,12.0,85,0.00,,,0.00,meteohub,2013-02-28 13:53:00,
2013-02-28 08:58:00,25.3,21.4,29.72,NW,306,3.0,12.0,85,0.00,,,0.00,meteohub,2013-02-28 13:58:00,
2013-02-28 09:03:00,25.3,21.4,29.71,NW,306,5.0,15.0,85,0.00,,,0.00,meteohub,2013-02-28 14:03:00,
2013-02-28 09:08:00,25.3,21.4,29.72,NW,306,0.0,16.0,85,0.00,,,0.00,meteohub,2013-02-28 14:08:00,
2013-02-28 09:13:00,25.3,21.7,29.72,NW,306,5.0,16.0,86,0.00,,,0.00,meteohub,2013-02-28 14:13:00,
2013-02-28 09:18:00,25.3,21.7,29.72,NW,306,3.0,20.0,86,0.00,,,0.00,meteohub,2013-02-28 14:18:00,
2013-02-28 09:23:00,25.3,21.7,29.72,NW,306,2.0,20.0,86,0.00,,,0.00,meteohub,2013-02-28 14:23:00,
2013-02-28 09:28:00,25.2,21.9,29.73,NW,306,0.0,20.0,87,0.00,,,0.00,meteohub,2013-02-28 14:28:00,
2013-02-28 09:33:00,25.2,21.9,29.73,NW,306,3.0,15.0,87,0.00,,,0.00,meteohub,2013-02-28 14:33:00,
2013-02-28 09:38:00,25.2,21.9,29.73,NW,306,3.0,15.0,87,0.00,,,0.00,meteohub,2013-02-28 14:38:00,
2013-02-28 09:43:00,25.0,21.9,29.73,NW,306,5.0,15.0,88,0.00,,,0.00,meteohub,2013-02-28 14:43:00,
2013-02-28 09:48:00,25.0,21.9,29.72,NW,306,3.0,15.0,88,0.00,,,0.00,meteohub,2013-02-28 14:48:00,
2013-02-28 09:53:00,25.0,21.9,29.73,NW,306,3.0,22.0,88,0.00,,,0.00,meteohub,2013-02-28 14:53:00,
2013-02-28 09:58:00,25.0,21.9,29.72,NW,306,17.0,29.0,88,0.00,,,0.00,meteohub,2013-02-28 14:58:00,
2013-02-28 10:03:00,24.8,21.7,29.72,NW,306,18.0,29.0,88,0.00,,,0.00,meteohub,2013-02-28 15:03:00,
2013-02-28 10:08:00,25.0,21.9,29.72,NW,306,14.0,24.0,88,0.00,,,0.00,meteohub,2013-02-28 15:08:00,
2013-02-28 10:13:00,24.8,21.7,29.72,NW,306,12.0,22.0,88,0.00,,,0.00,meteohub,2013-02-28 15:13:00,
2013-02-28 10:18:00,24.8,21.7,29.72,NW,306,3.0,31.0,88,0.00,,,0.00,meteohub,2013-02-28 15:18:00,
2013-02-28 10:23:00,25.0,21.7,29.72,NW,306,4.0,31.0,87,0.00,,,0.00,meteohub,2013-02-28 15:23:00,
2013-02-28 10:28:00,25.2,21.9,29.72,NW,306,4.0,31.0,87,0.00,,,0.00,meteohub,2013-02-28 15:28:00,
2013-02-28 10:33:00,25.3,21.7,29.72,NW,306,10.0,25.0,86,0.00,,,0.00,meteohub,2013-02-28 15:33:00,
2013-02-28 10:38:00,25.3,21.2,29.73,NW,306,6.0,27.0,84,0.00,,,0.00,meteohub,2013-02-28 15:38:00,
2013-02-28 10:43:00,25.5,21.4,29.73,NW,306,5.0,27.0,84,0.00,,,0.00,meteohub,2013-02-28 15:43:00,
2013-02-28 10:48:00,25.5,21.0,29.73,NW,306,0.0,17.0,83,0.00,,,0.00,meteohub,2013-02-28 15:48:00,
2013-02-28 10:53:00,25.9,21.7,29.74,NW,306,0.0,17.0,84,0.00,,,0.00,meteohub,2013-02-28 15:53:00,
2013-02-28 10:58:00,26.1,21.4,29.74,NW,306,11.0,17.0,82,0.00,,,0.00,meteohub,2013-02-28 15:58:00,
2013-02-28 11:03:00,25.9,21.4,29.73,NW,306,0.0,17.0,83,0.00,,,0.00,meteohub,2013-02-28 16:03:00,
2013-02-28 11:08:00,25.9,21.4,29.74,NW,306,5.0,16.0,83,0.00,,,0.00,meteohub,2013-02-28 16:08:00,
2013-02-28 11:13:00,26.1,21.9,29.74,NW,306,2.0,22.0,84,0.00,,,0.00,meteohub,2013-02-28 16:13:00,
2013-02-28 11:18:00,26.1,21.6,29.74,NW,306,6.0,24.0,83,0.00,,,0.00,meteohub,2013-02-28 16:18:00,
2013-02-28 11:23:00,26.2,21.7,29.75,NW,306,0.0,24.0,83,0.00,,,0.00,meteohub,2013-02-28 16:23:00,
2013-02-28 11:28:00,26.2,21.7,29.74,NW,306,4.0,16.0,83,0.00,,,0.00,meteohub,2013-02-28 16:28:00,
2013-02-28 11:33:00,26.2,22.1,29.75,NW,306,0.0,22.0,84,0.00,,,0.00,meteohub,2013-02-28 16:33:00,
2013-02-28 11:38:00,26.1,21.9,29.75,NW,306,7.0,22.0,84,0.00,,,0.00,meteohub,2013-02-28 16:38:00,
2013-02-28 11:43:00,26.1,22.1,29.75,NW,306,4.0,22.0,85,0.00,,,0.00,meteohub,2013-02-28 16:43:00,
2013-02-28 11:48:00,26.2,22.6,29.75,NW,306,8.0,21.0,86,0.00,,,0.00,meteohub,2013-02-28 16:48:00,
2013-02-28 11:53:00,26.4,22.5,29.75,NW,306,0.0,24.0,85,0.00,,,0.00,meteohub,2013-02-28 16:53:00,
2013-02-28 11:58:00,26.4,22.5,29.75,NW,306,6.0,24.0,85,0.00,,,0.00,meteohub,2013-02-28 16:58:00,
2013-02-28 12:03:00,26.2,22.3,29.75,NW,306,0.0,15.0,85,0.00,,,0.00,meteohub,2013-02-28 17:03:00,
2013-02-28 12:08:00,26.2,22.6,29.76,NW,306,8.0,15.0,86,0.00,,,0.00,meteohub,2013-02-28 17:08:00,
2013-02-28 12:14:00,26.1,22.5,29.77,NW,306,0.0,14.0,86,0.00,,,0.00,meteohub,2013-02-28 17:14:00,
2013-02-28 12:19:00,26.1,22.6,29.76,NW,306,0.0,14.0,87,0.00,,,0.00,meteohub,2013-02-28 17:19:00,
2013-02-28 12:24:00,26.1,22.5,29.76,NW,306,0.0,12.0,86,0.00,,,0.00,meteohub,2013-02-28 17:24:00,
2013-02-28 12:29:00,26.2,22.8,29.76,NW,306,6.0,9.0,87,0.00,,,0.00,meteohub,2013-02-28 17:29:00,
2013-02-28 12:34:00,26.4,22.8,29.76,NW,306,0.0,9.0,86,0.00,,,0.00,meteohub,2013-02-28 17:34:00,
2013-02-28 12:39:00,26.8,22.8,29.77,NW,306,6.0,9.0,85,0.00,,,0.00,meteohub,2013-02-28 17:39:00,
2013-02-28 12:44:00,26.8,22.3,29.77,NW,306,0.0,8.0,83,0.00,,,0.00,meteohub,2013-02-28 17:44:00,
2013-02-28 12:49:00,26.6,21.9,29.77,NW,306,11.0,11.0,82,0.00,,,0.00,meteohub,2013-02-28 17:49:00,
2013-02-28 12:54:00,26.2,21.7,29.77,NW,306,12.0,21.0,83,0.00,,,0.00,meteohub,2013-02-28 17:54:00,
2013-02-28 12:59:00,26.4,22.3,29.77,NW,306,9.0,21.0,84,0.00,,,0.00,meteohub,2013-02-28 17:59:00,
2013-02-28 13:04:00,26.2,22.1,29.77,NW,306,3.0,21.0,84,0.00,,,0.00,meteohub,2013-02-28 18:04:00,
2013-02-28 13:09:00,26.2,22.3,29.77,NW,306,1.0,15.0,85,0.00,,,0.00,meteohub,2013-02-28 18:09:00,
2013-02-28 13:14:00,26.2,22.3,29.76,NW,306,0.0,15.0,85,0.00,,,0.00,meteohub,2013-02-28 18:14:00,
2013-02-28 13:19:00,26.2,22.3,29.77,NW,306,0.0,12.0,85,0.00,,,0.00,meteohub,2013-02-28 18:19:00,
2013-02-28 13:24:00,26.2,22.3,29.77,NW,306,0.0,12.0,85,0.00,,,0.00,meteohub,2013-02-28 18:24:00,
2013-02-28 13:29:00,26.2,22.1,29.77,NW,306,4.0,12.0,84,0.00,,,0.00,meteohub,2013-02-28 18:29:00,
2013-02-28 13:34:00,26.1,21.6,29.77,NW,306,3.0,15.0,83,0.00,,,0.00,meteohub,2013-02-28 18:34:00,
2013-02-28 13:39:00,26.1,21.6,29.77,NW,306,7.0,18.0,83,0.00,,,0.00,meteohub,2013-02-28 18:39:00,
2013-02-28 13:44:00,26.2,21.7,29.77,NW,306,0.0,22.0,83,0.00,,,0.00,meteohub,2013-02-28 18:44:00,
2013-02-28 13:49:00,26.4,22.3,29.77,NW,306,3.0,22.0,84,0.00,,,0.00,meteohub,2013-02-28 18:49:00,
2013-02-28 13:54:00,26.2,21.7,29.77,NW,306,5.0,19.0,83,0.00,,,0.00,meteohub,2013-02-28 18:54:00,
2013-02-28 13:59:00,25.9,21.7,29.77,NW,306,11.0,16.0,84,0.00,,,0.00,meteohub,2013-02-28 18:59:00,
2013-02-28 14:04:00,25.7,21.2,29.77,NW,306,0.0,16.0,83,0.00,,,0.00,meteohub,2013-02-28 19:04:00,
2013-02-28 14:09:00,25.9,21.4,29.77,NW,306,2.0,16.0,83,0.00,,,0.00,meteohub,2013-02-28 19:09:00,
2013-02-28 14:14:00,26.1,21.4,29.78,NW,306,4.0,14.0,82,0.00,,,0.00,meteohub,2013-02-28 19:14:00,
2013-02-28 14:19:00,26.1,21.4,29.78,NW,306,4.0,17.0,82,0.00,,,0.00,meteohub,2013-02-28 19:19:00,
2013-02-28 14:24:00,26.1,21.6,29.78,NW,306,4.0,17.0,83,0.00,,,0.00,meteohub,2013-02-28 19:24:00,
2013-02-28 14:29:00,26.2,21.7,29.78,NW,306,0.0,18.0,83,0.00,,,0.00,meteohub,2013-02-28 19:29:00,
2013-02-28 14:34:00,26.4,21.7,29.78,NW,306,0.0,18.0,82,0.00,,,0.00,meteohub,2013-02-28 19:34:00,
2013-02-28 14:39:00,26.2,21.2,29.78,NW,306,4.0,18.0,81,0.00,,,0.00,meteohub,2013-02-28 19:39:00,
2013-02-28 14:44:00,26.1,21.4,29.78,NW,306,0.0,14.0,82,0.00,,,0.00,meteohub,2013-02-28 19:44:00,
2013-02-28 14:49:00,26.1,21.4,29.78,NW,306,0.0,14.0,82,0.00,,,0.00,meteohub,2013-02-28 19:49:00,
2013-02-28 14:54:00,25.9,21.2,29.78,NW,306,0.0,14.0,82,0.00,,,0.00,meteohub,2013-02-28 19:54:00,
2013-02-28 14:59:00,25.7,21.0,29.79,NW,306,11.0,11.0,82,0.00,,,0.00,meteohub,2013-02-28 19:59:00,
2013-02-28 15:04:00,25.3,20.8,29.79,NW,306,1.0,10.0,83,0.00,,,0.00,meteohub,2013-02-28 20:04:00,
2013-02-28 15:09:00,25.3,20.7,29.80,NW,306,4.0,12.0,82,0.00,,,0.00,meteohub,2013-02-28 20:09:00,
2013-02-28 15:14:00,25.3,20.8,29.80,NW,306,0.0,12.0,83,0.00,,,0.00,meteohub,2013-02-28 20:14:00,
2013-02-28 15:19:00,25.3,20.8,29.79,NW,306,0.0,12.0,83,0.00,,,0.00,meteohub,2013-02-28 20:19:00,
2013-02-28 15:24:00,25.5,21.0,29.80,NW,306,6.0,13.0,83,0.00,,,0.00,meteohub,2013-02-28 20:24:00,
2013-02-28 15:29:00,25.5,20.8,29.80,NW,306,3.0,13.0,82,0.00,,,0.00,meteohub,2013-02-28 20:29:00,
2013-02-28 15:34:00,25.3,20.8,29.80,NW,306,1.0,13.0,83,0.00,,,0.00,meteohub,2013-02-28 20:34:00,
2013-02-28 15:39:00,25.2,20.7,29.80,NW,306,6.0,11.0,83,0.00,,,0.00,meteohub,2013-02-28 20:39:00,
2013-02-28 15:45:00,25.0,20.8,29.80,NW,306,2.0,13.0,84,0.00,,,0.00,meteohub,2013-02-28 20:45:00,
2013-02-28 15:50:00,25.0,20.8,29.80,NW,306,6.0,13.0,84,0.00,,,0.00,meteohub,2013-02-28 20:50:00,
2013-02-28 15:55:00,25.0,21.2,29.81,NW,306,3.0,13.0,85,0.00,,,0.00,meteohub,2013-02-28 20:55:00,
2013-02-28 16:00:00,24.8,20.7,29.81,NW,306,6.0,13.0,84,0.00,,,0.00,meteohub,2013-02-28 21:00:00,
2013-02-28 16:05:00,24.6,20.5,29.81,NW,306,11.0,14.0,84,0.00,,,0.00,meteohub,2013-02-28 21:05:00,
2013-02-28 16:10:00,24.8,20.7,29.82,NW,306,0.0,14.0,84,0.00,,,0.00,meteohub,2013-02-28 21:10:00,
2013-02-28 16:15:00,24.8,20.7,29.81,NW,306,3.0,13.0,84,0.00,,,0.00,meteohub,2013-02-28 21:15:00,
2013-02-28 16:20:00,25.0,20.8,29.81,NW,306,8.0,13.0,84,0.00,,,0.00,meteohub,2013-02-28 21:20:00,
2013-02-28 16:25:00,25.0,20.8,29.81,NW,306,10.0,13.0,84,0.00,,,0.00,meteohub,2013-02-28 21:25:00,
2013-02-28 16:30:00,24.6,20.5,29.81,NW,306,2.0,13.0,84,0.00,,,0.00,meteohub,2013-02-28 21:30:00,
2013-02-28 16:35:00,24.6,20.8,29.82,NW,306,4.0,17.0,85,0.00,,,0.00,meteohub,2013-02-28 21:35:00,
2013-02-28 16:40:00,24.6,20.8,29.82,NW,306,13.0,17.0,85,0.00,,,0.00,meteohub,2013-02-28 21:40:00,
2013-02-28 16:45:00,24.4,20.7,29.82,NW,306,11.0,17.0,85,0.00,,,0.00,meteohub,2013-02-28 21:45:00,
2013-02-28 16:50:00,24.4,20.7,29.82,NW,306,4.0,16.0,85,0.00,,,0.00,meteohub,2013-02-28 21:50:00,
2013-02-28 16:56:00,24.4,20.7,29.82,NW,306,2.0,15.0,85,0.00,,,0.00,meteohub,2013-02-28 21:56:00,
2013-02-28 17:01:00,24.4,20.7,29.83,NW,306,4.0,16.0,85,0.00,,,0.00,meteohub,2013-02-28 22:01:00,
2013-02-28 17:06:00,24.4,20.7,29.83,NW,306,2.0,16.0,85,0.00,,,0.00,meteohub,2013-02-28 22:06:00,
2013-02-28 17:11:00,24.6,20.8,29.83,NW,306,11.0,16.0,85,0.00,,,0.00,meteohub,2013-02-28 22:11:00,
2013-02-28 17:16:00,24.4,20.7,29.83,NW,306,6.0,18.0,85,0.00,,,0.00,meteohub,2013-02-28 22:16:00,
2013-02-28 17:21:00,24.4,20.7,29.83,NW,306,1.0,18.0,85,0.00,,,0.00,meteohub,2013-02-28 22:21:00,
2013-02-28 17:26:00,24.4,20.7,29.83,NW,306,6.0,18.0,85,0.00,,,0.00,meteohub,2013-02-28 22:26:00,
2013-02-28 17:31:00,24.4,20.7,29.83,NW,306,0.0,13.0,85,0.00,,,0.00,meteohub,2013-02-28 22:31:00,
2013-02-28 17:36:00,24.4,20.7,29.83,NW,306,1.0,13.0,85,0.00,,,0.00,meteohub,2013-02-28 22:36:00,
2013-02-28 17:41:00,24.3,20.5,29.83,NW,306,0.0,18.0,85,0.00,,,0.00,meteohub,2013-02-28 22:41:00,
2013-02-28 17:46:00,24.3,20.7,29.84,NW,306,8.0,18.0,86,0.00,,,0.00,meteohub,2013-02-28 22:46:00,
2013-02-28 17:51:00,24.1,20.5,29.84,NW,306,6.0,18.0,86,0.00,,,0.00,meteohub,2013-02-28 22:51:00,
2013-02-28 17:56:00,23.9,20.3,29.84,NW,306,4.0,17.0,86,0.00,,,0.00,meteohub,2013-02-28 22:56:00,
2013-02-28 18:01:00,23.7,20.5,29.85,NW,306,0.0,17.0,87,0.00,,,0.00,meteohub,2013-02-28 23:01:00,
2013-02-28 18:06:00,23.5,20.3,29.85,NW,306,8.0,20.0,87,0.00,,,0.00,meteohub,2013-02-28 23:06:00,
2013-02-28 18:11:00,23.5,20.3,29.86,NW,306,6.0,20.0,87,0.00,,,0.00,meteohub,2013-02-28 23:11:00,
2013-02-28 18:16:00,23.4,20.1,29.86,NW,306,10.0,18.0,87,0.00,,,0.00,meteohub,2013-02-28 23:16:00,
2013-02-28 18:21:00,23.4,20.3,29.86,NW,306,3.0,18.0,88,0.00,,,0.00,meteohub,2013-02-28 23:21:00,
2013-02-28 18:26:00,23.2,20.1,29.86,NW,306,7.0,20.0,88,0.00,,,0.00,meteohub,2013-02-28 23:26:00,
2013-02-28 18:31:00,23.2,20.1,29.86,NW,306,3.0,20.0,88,0.00,,,0.00,meteohub,2013-02-28 23:31:00,
2013-02-28 18:36:00,23.2,20.1,29.86,NW,306,5.0,20.0,88,0.00,,,0.00,meteohub,2013-02-28 23:36:00,
2013-02-28 18:42:00,23.0,19.9,29.86,NW,306,1.0,15.0,88,0.00,,,0.00,meteohub,2013-02-28 23:42:00,
2013-02-28 18:47:00,22.8,19.8,29.86,NW,306,13.0,15.0,88,0.00,,,0.00,meteohub,2013-02-28 23:47:00,
2013-02-28 18:52:00,22.8,19.8,29.87,NW,306,6.0,16.0,88,0.00,,,0.00,meteohub,2013-02-28 23:52:00,
2013-02-28 18:57:00,22.8,19.8,29.86,NW,306,12.0,16.0,88,0.00,,,0.00,meteohub,2013-02-28 23:57:00,
2013-02-28 19:02:00,22.6,19.9,29.86,NW,306,9.0,18.0,89,0.00,,,0.00,meteohub,2013-03-01 00:02:00,
2013-02-28 19:07:00,22.6,19.9,29.86,NW,306,11.0,18.0,89,0.00,,,0.00,meteohub,2013-03-01 00:07:00,
2013-02-28 19:12:00,22.6,19.9,29.86,NW,306,3.0,18.0,89,0.00,,,0.00,meteohub,2013-03-01 00:12:00,
2013-02-28 19:17:00,22.6,19.9,29.86,NW,306,15.0,19.0,89,0.00,,,0.00,meteohub,2013-03-01 00:17:00,
2013-02-28 19:22:00,22.6,19.9,29.86,NW,306,2.0,19.0,89,0.00,,,0.00,meteohub,2013-03-01 00:22:00,
2013-02-28 19:27:00,22.6,19.9,29.86,NW,306,3.0,19.0,89,0.00,,,0.00,meteohub,2013-03-01 00:27:00,
2013-02-28 19:32:00,22.6,19.9,29.86,NW,306,0.0,15.0,89,0.00,,,0.00,meteohub,2013-03-01 00:32:00,
2013-02-28 19:37:00,22.8,20.1,29.86,NW,306,2.0,15.0,89,0.00,,,0.00,meteohub,2013-03-01 00:37:00,
2013-02-28 19:42:00,22.8,20.1,29.86,NW,306,0.0,13.0,89,0.00,,,0.00,meteohub,2013-03-01 00:42:00,
2013-02-28 19:47:00,22.6,19.9,29.86,NW,306,5.0,9.0,89,0.00,,,0.00,meteohub,2013-03-01 00:47:00,
2013-02-28 19:52:00,22.6,19.9,29.87,NW,306,5.0,10.0,89,0.00,,,0.00,meteohub,2013-03-01 00:52:00,
2013-02-28 19:57:00,22.6,19.9,29.87,NW,306,4.0,21.0,89,0.00,,,0.00,meteohub,2013-03-01 00:57:00,
2013-02-28 20:02:00,22.6,19.9,29.87,NW,306,1.0,21.0,89,0.00,,,0.00,meteohub,2013-03-01 01:02:00,
2013-02-28 20:07:00,22.8,20.1,29.87,NW,306,4.0,21.0,89,0.00,,,0.00,meteohub,2013-03-01 01:07:00,
2013-02-28 20:12:00,22.8,20.1,29.88,NW,306,0.0,16.0,89,0.00,,,0.00,meteohub,2013-03-01 01:12:00,
2013-02-28 20:17:00,22.8,20.1,29.87,NW,306,1.0,14.0,89,0.00,,,0.00,meteohub,2013-03-01 01:17:00,
2013-02-28 20:22:00,22.8,20.1,29.87,NW,306,0.0,14.0,89,0.00,,,0.00,meteohub,2013-03-01 01:22:00,
2013-02-28 20:27:00,22.8,20.1,29.87,NW,306,1.0,15.0,89,0.00,,,0.00,meteohub,2013-03-01 01:27:00,
2013-02-28 20:32:00,22.8,19.8,29.87,NW,306,0.0,15.0,88,0.00,,,0.00,meteohub,2013-03-01 01:32:00,
2013-02-28 20:37:00,22.8,19.8,29.88,NW,306,0.0,13.0,88,0.00,,,0.00,meteohub,2013-03-01 01:37:00,
2013-02-28 20:42:00,22.8,19.8,29.87,NW,306,9.0,14.0,88,0.00,,,0.00,meteohub,2013-03-01 01:42:00,
2013-02-28 20:47:00,22.8,19.8,29.88,NW,306,0.0,15.0,88,0.00,,,0.00,meteohub,2013-03-01 01:47:00,
2013-02-28 20:52:00,22.8,20.1,29.88,NW,306,0.0,15.0,89,0.00,,,0.00,meteohub,2013-03-01 01:52:00,
2013-02-28 20:57:00,22.8,20.1,29.88,NW,306,4.0,14.0,89,0.00,,,0.00,meteohub,2013-03-01 01:57:00,
2013-02-28 21:02:00,22.6,19.9,29.87,NW,306,13.0,13.0,89,0.00,,,0.00,meteohub,2013-03-01 02:02:00,
2013-02-28 21:07:00,22.6,19.9,29.88,NW,306,0.0,13.0,89,0.00,,,0.00,meteohub,2013-03-01 02:07:00,
2013-02-28 21:12:00,22.6,19.9,29.88,NW,306,0.0,13.0,89,0.00,,,0.00,meteohub,2013-03-01 02:12:00,
2013-02-28 21:17:00,22.6,19.9,29.88,NW,306,3.0,13.0,89,0.00,,,0.00,meteohub,2013-03-01 02:17:00,
2013-02-28 21:22:00,22.6,19.9,29.88,NW,306,14.0,14.0,89,0.00,,,0.00,meteohub,2013-03-01 02:22:00,
2013-02-28 21:27:00,22.6,19.9,29.88,NW,306,6.0,14.0,89,0.00,,,0.00,meteohub,2013-03-01 02:27:00,
2013-02-28 21:32:00,22.8,20.1,29.88,NW,306,0.0,15.0,89,0.00,,,0.00,meteohub,2013-03-01 02:32:00,
2013-02-28 21:37:00,22.8,20.1,29.88,NW,306,5.0,15.0,89,0.00,,,0.00,meteohub,2013-03-01 02:37:00,
2013-02-28 21:42:00,23.0,19.9,29.87,NW,306,0.0,15.0,88,0.00,,,0.00,meteohub,2013-03-01 02:42:00,
2013-02-28 21:47:00,23.0,19.9,29.87,NW,306,0.0,16.0,88,0.00,,,0.00,meteohub,2013-03-01 02:47:00,
2013-02-28 21:52:00,23.0,19.9,29.88,NW,306,6.0,16.0,88,0.00,,,0.00,meteohub,2013-03-01 02:52:00,
2013-02-28 21:56:00,23.2,20.1,29.88,NW,306,2.0,16.0,88,0.00,,,0.00,meteohub,2013-03-01 02:56:00,
2013-02-28 22:02:00,23.2,20.1,29.88,NW,306,7.0,11.0,88,0.00,,,0.00,meteohub,2013-03-01 03:02:00,
2013-02-28 22:07:00,23.2,20.1,29.88,NW,306,3.0,11.0,88,0.00,,,0.00,meteohub,2013-03-01 03:07:00,
2013-02-28 22:12:00,23.2,20.1,29.88,NW,306,4.0,13.0,88,0.00,,,0.00,meteohub,2013-03-01 03:12:00,
2013-02-28 22:17:00,23.2,20.1,29.88,NW,306,7.0,13.0,88,0.00,,,0.00,meteohub,2013-03-01 03:17:00,
2013-02-28 22:22:00,23.0,19.9,29.87,NW,306,5.0,15.0,88,0.00,,,0.00,meteohub,2013-03-01 03:22:00,
2013-02-28 22:27:00,22.8,19.8,29.88,NW,306,5.0,15.0,88,0.00,,,0.00,meteohub,2013-03-01 03:27:00,
2013-02-28 22:32:00,22.8,19.8,29.88,NW,306,1.0,15.0,88,0.00,,,0.00,meteohub,2013-03-01 03:32:00,
2013-02-28 22:37:00,22.8,20.1,29.89,NW,306,0.0,12.0,89,0.00,,,0.00,meteohub,2013-03-01 03:37:00,
2013-02-28 22:42:00,22.8,20.1,29.88,NW,306,0.0,11.0,89,0.00,,,0.00,meteohub,2013-03-01 03:42:00,
2013-02-28 22:47:00,22.8,20.1,29.88,NW,306,0.0,11.0,89,0.00,,,0.00,meteohub,2013-03-01 03:47:00,
2013-02-28 22:52:00,22.8,20.1,29.88,NW,306,1.0,12.0,89,0.00,,,0.00,meteohub,2013-03-01 03:52:00,
2013-02-28 22:57:00,22.8,20.1,29.88,NW,306,0.0,12.0,89,0.00,,,0.00,meteohub,2013-03-01 03:57:00,
2013-02-28 23:02:00,22.8,20.3,29.88,NW,306,0.0,12.0,90,0.00,,,0.00,meteohub,2013-03-01 04:02:00,
2013-02-28 23:07:00,23.2,20.5,29.88,NW,306,0.0,14.0,89,0.00,,,0.00,meteohub,2013-03-01 04:07:00,
2013-02-28 23:12:00,23.2,20.5,29.88,NW,306,0.0,14.0,89,0.00,,,0.00,meteohub,2013-03-01 04:12:00,
2013-02-28 23:17:00,23.0,20.3,29.88,NW,306,0.0,14.0,89,0.00,,,0.00,meteohub,2013-03-01 04:17:00,
2013-02-28 23:22:00,23.2,20.7,29.88,NW,306,7.0,12.0,90,0.00,,,0.00,meteohub,2013-03-01 04:22:00,
2013-02-28 23:27:00,23.2,20.7,29.88,NW,306,0.0,17.0,90,0.00,,,0.00,meteohub,2013-03-01 04:27:00,
2013-02-28 23:32:00,23.0,20.5,29.88,NW,306,0.0,17.0,90,0.00,,,0.00,meteohub,2013-03-01 04:32:00,
2013-02-28 23:37:00,23.0,20.5,29.88,NW,306,2.0,17.0,90,0.00,,,0.00,meteohub,2013-03-01 04:37:00,
2013-02-28 23:42:00,22.8,20.3,29.89,NW,306,0.0,12.0,90,0.00,,,0.00,meteohub,2013-03-01 04:42:00,
2013-02-28 23:47:00,22.8,20.3,29.89,NW,306,5.0,15.0,90,0.00,,,0.00,meteohub,2013-03-01 04:47:00,
2013-02-28 23:52:00,22.8,20.3,29.89,NW,306,3.0,15.0,90,0.00,,,0.00,meteohub,2013-03-01 04:52:00,
2013-02-28 23:57:00,23.0,20.5,29.89,NW,306,4.0,9.0,90,0.00,,,0.00,meteohub,2013-03-01 04:57:00,